Time;durP1;ratioP1;P1;durP2;ratioP2;P2;SDS_P1;SDS_P2;PMS_P1;PMS_P2;Temp;Humidity;BMP_temperature;BMP_pressure;BME280_temperature;BME280_humidity;BME280_pressure;Samples;Min_cycle;Max_cycle;Signal;HPM_P1;HPM_P2
2023/01/10 00:01:05;;;;;;;5.40;4.90;;;17.20;56.30;;;;;;222616;1269;22521;-49
2023/01/10 00:06:09;;;;;;;5.70;5.20;;;17.10;56.50;;;;;;222693;1262;25364;-47
2023/01/10 00:16:38;;;;;;;5.60;5.10;;;17.10;56.50;;;;;;222734;1269;22518;-47
2023/01/10 00:21:42;;;;;;;6.00;5.40;;;17.10;56.70;;;;;;222801;1269;22531;-49
2023/01/10 00:26:52;;;;;;;6.00;5.50;;;17.10;57.00;;;;;;222591;1265;24258;-47
2023/01/10 00:31:56;;;;;;;6.30;5.70;;;17.10;56.60;;;;;;222541;1269;22615;-46
2023/01/10 00:37:01;;;;;;;5.80;5.30;;;17.10;56.60;;;;;;222618;1269;24197;-47
2023/01/10 00:47:29;;;;;;;5.90;5.30;;;17.20;56.40;;;;;;222683;1262;22564;-46
2023/01/10 00:52:33;;;;;;;5.60;5.10;;;17.20;56.20;;;;;;222590;1269;23946;-47
2023/01/10 00:57:38;;;;;;;6.10;5.50;;;17.20;56.30;;;;;;222582;1265;24314;-46
2023/01/10 01:02:42;;;;;;;5.80;5.20;;;17.20;56.10;;;;;;222335;1265;22540;-47
2023/01/10 01:07:51;;;;;;;6.30;5.70;;;17.20;56.10;;;;;;222561;1269;25473;-47
2023/01/10 01:12:57;;;;;;;5.70;5.20;;;17.10;56.10;;;;;;222620;1269;22520;-48
2023/01/10 01:18:05;;;;;;;5.80;5.30;;;17.20;56.60;;;;;;222724;1262;22672;-48
2023/01/10 01:23:10;;;;;;;5.60;5.10;;;17.10;56.50;;;;;;222430;1269;25410;-46
2023/01/10 01:28:14;;;;;;;6.40;5.60;;;17.10;56.50;;;;;;222475;1263;25326;-46
2023/01/10 01:33:19;;;;;;;5.60;5.10;;;17.00;56.70;;;;;;222681;1269;25282;-47
2023/01/10 01:38:24;;;;;;;5.70;5.20;;;17.10;56.50;;;;;;222269;1268;22513;-46
2023/01/10 01:43:33;;;;;;;6.10;5.50;;;17.10;57.00;;;;;;222371;1269;24243;-48
2023/01/10 01:48:40;;;;;;;6.00;5.40;;;17.20;56.20;;;;;;222908;1269;22527;-46
2023/01/10 01:53:50;;;;;;;6.30;5.50;;;17.10;56.50;;;;;;222392;1269;22543;-47
2023/01/10 01:59:00;;;;;;;6.40;5.40;;;17.00;56.80;;;;;;222535;1269;22523;-47
2023/01/10 02:04:12;;;;;;;6.20;5.60;;;17.00;56.40;;;;;;222194;1262;25275;-45
2023/01/10 02:09:38;;;;;;;5.80;5.30;;;17.10;56.30;;;;;;222314;1261;247527;-47
2023/01/10 02:14:45;;;;;;;7.00;5.60;;;17.10;56.30;;;;;;222471;1269;22636;-48
2023/01/10 02:20:22;;;;;;;6.30;5.70;;;17.20;56.00;;;;;;222782;1269;22526;-46
2023/01/10 02:25:45;;;;;;;6.20;5.50;;;17.10;56.40;;;;;;221187;1276;25349;-47
2023/01/10 02:31:19;;;;;;;5.90;5.30;;;17.20;55.90;;;;;;221011;1276;22544;-46
2023/01/10 02:36:36;;;;;;;6.00;5.40;;;17.10;56.20;;;;;;221187;1276;26238;-47
2023/01/10 02:41:51;;;;;;;6.70;5.80;;;17.10;56.10;;;;;;221047;1271;25366;-46
2023/01/10 02:46:55;;;;;;;5.70;5.20;;;17.00;56.60;;;;;;221039;1276;22553;-46
2023/01/10 02:52:00;;;;;;;6.50;5.80;;;16.90;56.50;;;;;;220769;1276;25538;-48
2023/01/10 02:57:25;;;;;;;6.20;5.60;;;17.00;56.40;;;;;;221039;1274;24224;-45
2023/01/10 03:02:57;;;;;;;6.30;5.70;;;17.00;56.40;;;;;;222420;1265;25120;-48
2023/01/10 03:08:10;;;;;;;6.10;5.40;;;16.90;56.70;;;;;;222412;1262;22520;-47
2023/01/10 03:13:36;;;;;;;6.10;5.30;;;17.00;56.20;;;;;;222440;1269;25368;-45
2023/01/10 03:18:47;;;;;;;6.30;5.70;;;17.00;56.30;;;;;;222289;1265;22579;-46
2023/01/10 03:23:55;;;;;;;6.70;6.10;;;17.00;56.60;;;;;;222504;1245;24226;-45
2023/01/10 03:29:07;;;;;;;6.10;5.50;;;17.10;56.00;;;;;;222270;1265;22714;-49
2023/01/10 03:34:12;;;;;;;6.10;5.50;;;17.00;56.20;;;;;;222201;1265;22574;-47
2023/01/10 03:39:39;;;;;;;5.90;5.30;;;16.90;56.70;;;;;;222456;1269;22773;-46
2023/01/10 03:45:08;;;;;;;6.10;5.40;;;17.00;56.20;;;;;;222376;1259;22537;-46
2023/01/10 03:50:17;;;;;;;6.30;5.50;;;16.90;56.60;;;;;;222248;1268;22520;-47
2023/01/10 03:55:25;;;;;;;5.90;5.30;;;16.80;56.60;;;;;;222443;1269;22800;-47
2023/01/10 04:00:30;;;;;;;6.40;5.70;;;16.90;56.50;;;;;;222578;1265;26156;-46
2023/01/10 04:05:35;;;;;;;6.60;6.00;;;16.80;56.50;;;;;;222468;1264;24369;-48
2023/01/10 04:10:39;;;;;;;6.10;5.50;;;16.80;56.60;;;;;;222505;1269;24436;-46
2023/01/10 04:15:43;;;;;;;5.80;5.20;;;16.90;56.50;;;;;;222733;1269;22522;-50
2023/01/10 04:20:48;;;;;;;6.20;5.50;;;16.80;56.60;;;;;;222551;1258;22523;-47
2023/01/10 04:25:54;;;;;;;6.90;5.70;;;16.80;56.80;;;;;;222464;1265;22645;-45
2023/01/10 04:31:06;;;;;;;6.60;5.90;;;16.80;56.40;;;;;;222362;1265;23159;-47
2023/01/10 04:36:11;;;;;;;7.10;6.40;;;16.80;56.60;;;;;;222339;1247;22663;-46
2023/01/10 04:41:16;;;;;;;6.90;6.30;;;16.80;56.50;;;;;;222764;1269;23414;-50
2023/01/10 04:46:20;;;;;;;6.20;5.30;;;16.80;56.90;;;;;;222516;1269;22578;-48
2023/01/10 04:51:26;;;;;;;6.80;6.10;;;16.80;57.00;;;;;;222432;1269;25342;-45
2023/01/10 04:56:30;;;;;;;5.30;4.80;;;16.80;56.70;;;;;;222405;1268;26299;-46
2023/01/10 05:01:37;;;;;;;6.40;5.70;;;16.80;56.80;;;;;;222628;1264;24197;-45
2023/01/10 05:06:42;;;;;;;5.90;5.40;;;16.70;56.70;;;;;;222501;1269;22518;-47
2023/01/10 05:11:46;;;;;;;5.90;5.40;;;16.80;56.60;;;;;;222487;1269;22540;-46
2023/01/10 05:16:51;;;;;;;5.90;5.30;;;16.80;56.40;;;;;;222681;1269;22526;-48
2023/01/10 05:21:56;;;;;;;5.20;4.80;;;16.70;56.50;;;;;;222478;1266;25205;-45
2023/01/10 05:27:00;;;;;;;6.30;5.70;;;16.80;56.30;;;;;;222468;1269;25487;-51
2023/01/10 05:32:05;;;;;;;5.90;5.20;;;16.80;56.20;;;;;;222427;1269;24194;-46
2023/01/10 05:37:09;;;;;;;6.00;5.40;;;16.80;56.20;;;;;;222462;1269;25373;-46
2023/01/10 05:42:13;;;;;;;5.20;4.70;;;16.70;56.90;;;;;;222483;1269;22520;-46
2023/01/10 05:47:18;;;;;;;6.10;5.50;;;16.70;56.40;;;;;;222432;1269;22524;-45
2023/01/10 05:52:23;;;;;;;5.50;4.90;;;16.70;56.80;;;;;;222480;1266;22521;-47
2023/01/10 05:57:27;;;;;;;5.80;5.20;;;16.70;56.50;;;;;;222097;1269;22724;-46
2023/01/10 06:02:32;;;;;;;4.80;4.40;;;16.70;56.40;;;;;;222646;1263;22903;-46
2023/01/10 06:07:37;;;;;;;4.70;4.30;;;16.60;56.50;;;;;;222611;1263;24187;-45
2023/01/10 06:12:42;;;;;;;5.30;4.90;;;16.70;56.60;;;;;;222639;1262;25403;-48
2023/01/10 06:17:49;;;;;;;5.70;5.00;;;16.70;56.60;;;;;;222654;1269;22540;-50
2023/01/10 06:22:54;;;;;;;4.70;4.30;;;16.70;56.50;;;;;;222336;1269;22646;-47
2023/01/10 06:27:58;;;;;;;6.50;5.20;;;16.70;56.50;;;;;;222423;1269;22547;-47
2023/01/10 06:33:07;;;;;;;5.10;4.60;;;16.60;56.30;;;;;;222434;1269;25242;-48
2023/01/10 06:38:20;;;;;;;5.70;4.60;;;16.70;56.50;;;;;;222532;1269;23870;-48
2023/01/10 06:43:24;;;;;;;4.70;4.30;;;16.70;56.40;;;;;;222412;1268;24196;-46
2023/01/10 06:48:29;;;;;;;5.50;4.90;;;16.70;56.50;;;;;;222549;1269;22738;-46
2023/01/10 06:53:33;;;;;;;5.00;4.60;;;16.70;56.30;;;;;;222512;1262;22520;-46
2023/01/10 06:58:38;;;;;;;5.00;4.50;;;16.70;56.20;;;;;;222424;1269;25334;-47
2023/01/10 07:03:43;;;;;;;4.60;4.20;;;16.70;56.60;;;;;;222370;1262;22580;-47
2023/01/10 07:08:48;;;;;;;4.80;4.30;;;16.70;56.30;;;;;;222769;1265;22520;-46
2023/01/10 07:13:52;;;;;;;4.70;4.30;;;16.70;56.30;;;;;;222674;1263;22613;-47
2023/01/10 07:18:59;;;;;;;4.70;4.30;;;16.60;56.50;;;;;;222445;1266;22546;-48
2023/01/10 07:24:04;;;;;;;4.00;3.70;;;16.70;56.40;;;;;;222479;1268;25328;-48
2023/01/10 07:29:08;;;;;;;5.20;4.60;;;16.60;56.40;;;;;;222731;1265;22535;-46
2023/01/10 07:34:13;;;;;;;4.20;3.80;;;16.60;56.50;;;;;;222336;1269;22553;-45
2023/01/10 07:39:17;;;;;;;4.10;3.70;;;16.60;56.60;;;;;;222157;1265;22521;-47
2023/01/10 07:44:25;;;;;;;4.30;3.90;;;16.60;56.50;;;;;;222718;1269;22632;-46
2023/01/10 07:49:38;;;;;;;4.60;4.10;;;16.60;56.60;;;;;;222506;1262;22639;-48
2023/01/10 07:54:42;;;;;;;4.20;3.80;;;16.60;56.50;;;;;;222371;1269;22533;-44
2023/01/10 07:59:47;;;;;;;4.90;4.60;;;16.60;56.40;;;;;;222553;1253;22563;-47
2023/01/10 08:04:51;;;;;;;4.40;4.00;;;16.60;56.70;;;;;;222690;1269;23295;-47
2023/01/10 08:09:55;;;;;;;4.40;3.90;;;16.60;56.30;;;;;;222730;1269;22524;-48
2023/01/10 08:14:59;;;;;;;4.30;3.90;;;16.70;56.20;;;;;;222506;1266;23881;-49
2023/01/10 08:20:05;;;;;;;4.40;4.10;;;16.70;56.20;;;;;;222598;1269;22636;-46
2023/01/10 08:25:10;;;;;;;4.60;4.20;;;16.70;56.60;;;;;;222704;1269;26296;-46
2023/01/10 08:30:14;;;;;;;5.20;3.90;;;16.70;56.10;;;;;;222647;1269;22535;-47
2023/01/10 08:35:19;;;;;;;4.70;4.20;;;16.60;56.50;;;;;;222523;1266;22478;-47
2023/01/10 08:40:23;;;;;;;4.50;4.10;;;16.60;56.50;;;;;;222566;1269;25346;-46
2023/01/10 08:45:29;;;;;;;4.10;3.80;;;16.50;56.50;;;;;;222587;1269;25237;-48
2023/01/10 08:50:39;;;;;;;4.20;3.80;;;16.50;56.60;;;;;;222378;1269;23761;-46
2023/01/10 08:55:43;;;;;;;4.10;3.70;;;16.60;56.50;;;;;;222536;1266;23800;-48
2023/01/10 09:00:48;;;;;;;4.30;3.60;;;16.60;56.30;;;;;;222729;1260;22536;-45
2023/01/10 09:05:52;;;;;;;4.30;3.90;;;16.60;56.30;;;;;;222449;1264;22531;-47
2023/01/10 09:10:59;;;;;;;3.40;3.20;;;16.50;56.80;;;;;;222698;1269;22642;-48
2023/01/10 09:16:04;;;;;;;3.70;3.40;;;16.50;56.50;;;;;;222915;1248;24196;-48
2023/01/10 09:21:08;;;;;;;4.10;3.70;;;16.50;56.40;;;;;;222514;1269;26578;-50
2023/01/10 09:26:12;;;;;;;3.60;3.30;;;16.50;56.40;;;;;;222715;1269;22586;-45
2023/01/10 09:31:20;;;;;;;3.60;3.30;;;16.50;56.90;;;;;;222382;1269;25351;-49
2023/01/10 09:36:24;;;;;;;3.60;3.30;;;16.50;56.60;;;;;;222619;1269;22541;-47
2023/01/10 09:41:57;;;;;;;3.20;2.90;;;16.60;56.50;;;;;;222325;1262;22524;-45
2023/01/10 09:47:10;;;;;;;;;;;16.60;56.20;;;;;;222285;1269;22512;-49
2023/01/10 09:52:32;;;;;;;3.10;2.80;;;16.60;56.30;;;;;;222441;1269;22517;-45
2023/01/10 09:57:36;;;;;;;3.50;3.20;;;16.50;56.90;;;;;;222524;1269;22548;-46
2023/01/10 10:02:45;;;;;;;3.80;3.50;;;16.50;56.60;;;;;;222877;1269;23884;-47
2023/01/10 10:08:03;;;;;;;3.50;3.20;;;16.50;56.50;;;;;;222449;1253;24178;-44
2023/01/10 10:13:35;;;;;;;3.00;2.60;;;16.50;56.60;;;;;;222436;1263;23923;-45
2023/01/10 10:19:40;;;;;;;4.20;3.50;;;16.50;56.60;;;;;;222329;1265;25400;-46
2023/01/10 10:25:03;;;;;;;3.10;2.90;;;16.40;56.70;;;;;;221431;1274;22799;-46
2023/01/10 10:30:19;;;;;;;3.20;2.90;;;16.50;56.30;;;;;;221277;1274;25287;-49
2023/01/10 10:36:14;;;;;;;2.90;2.70;;;16.50;56.50;;;;;;221584;1273;22532;-46
2023/01/10 10:42:04;;;;;;;3.30;3.10;;;16.50;56.40;;;;;;221094;1274;22540;-46
2023/01/10 10:47:21;;;;;;;3.50;3.20;;;16.50;56.70;;;;;;220842;1274;25324;-50
2023/01/10 10:52:33;;;;;;;3.30;3.00;;;16.50;56.30;;;;;;221201;1269;24367;-46
2023/01/10 10:57:38;;;;;;;3.40;3.10;;;16.50;56.60;;;;;;222492;1269;24249;-46
2023/01/10 11:03:06;;;;;;;2.90;2.60;;;16.50;56.40;;;;;;222233;1269;22545;-46
2023/01/10 11:08:18;;;;;;;3.00;2.80;;;16.50;56.40;;;;;;222542;1262;24241;-47
2023/01/10 11:13:38;;;;;;;3.40;3.10;;;16.40;56.60;;;;;;222597;1264;22758;-47
2023/01/10 11:19:02;;;;;;;3.20;2.90;;;16.50;56.50;;;;;;222390;1265;22527;-49
2023/01/10 11:24:49;;;;;;;2.90;2.70;;;16.50;56.40;;;;;;222633;1269;25310;-48
2023/01/10 11:30:08;;;;;;;2.80;2.60;;;16.60;56.30;;;;;;222342;1267;22570;-48
2023/01/10 11:35:23;;;;;;;3.20;3.00;;;16.50;56.30;;;;;;222827;1267;24482;-47
2023/01/10 11:40:30;;;;;;;3.50;2.70;;;16.50;56.20;;;;;;222439;1269;22602;-46
2023/01/10 11:45:35;;;;;;;2.80;2.60;;;16.60;56.20;;;;;;222809;1267;22517;-46
2023/01/10 11:50:44;;;;;;;3.30;3.00;;;16.50;56.40;;;;;;222604;1269;24653;-47
2023/01/10 11:55:49;;;;;;;2.80;2.60;;;16.50;56.30;;;;;;222667;1269;22667;-48
2023/01/10 12:00:53;;;;;;;2.80;2.60;;;16.50;56.30;;;;;;222477;1269;22526;-45
2023/01/10 12:06:03;;;;;;;3.00;2.70;;;16.40;56.50;;;;;;222719;1269;24377;-47
2023/01/10 12:11:16;;;;;;;2.40;2.20;;;16.50;56.40;;;;;;222208;1269;22576;-48
2023/01/10 12:16:27;;;;;;;3.10;2.80;;;16.50;56.70;;;;;;222788;1261;22649;-46
2023/01/10 12:21:44;;;;;;;3.00;2.70;;;16.60;56.20;;;;;;222535;1269;22754;-45
2023/01/10 12:26:52;;;;;;;2.50;2.30;;;16.50;56.40;;;;;;222779;1265;25253;-47
2023/01/10 12:31:59;;;;;;;2.70;2.50;;;16.50;56.20;;;;;;222723;1269;22813;-47
2023/01/10 12:37:22;;;;;;;2.60;2.40;;;16.50;56.30;;;;;;222908;1269;25239;-45
2023/01/10 12:48:32;;;;;;;3.00;2.70;;;16.50;56.30;;;;;;221062;1270;22549;-45
2023/01/10 12:53:47;;;;;;;2.50;2.30;;;16.60;56.20;;;;;;221042;1276;25490;-48
2023/01/10 12:59:00;;;;;;;2.70;2.50;;;16.60;56.00;;;;;;221060;1276;24458;-48
2023/01/10 13:04:10;;;;;;;2.80;2.60;;;16.60;56.00;;;;;;220807;1273;22527;-48
2023/01/10 13:09:21;;;;;;;2.60;2.40;;;16.50;56.40;;;;;;220935;1273;23925;-46
2023/01/10 13:14:50;;;;;;;2.50;2.30;;;16.50;56.50;;;;;;221023;1273;22620;-47
2023/01/10 13:20:23;;;;;;;2.80;2.50;;;16.50;56.30;;;;;;221348;1273;22804;-47
2023/01/10 13:25:33;;;;;;;2.40;2.20;;;16.50;56.40;;;;;;221897;1271;25407;-47
2023/01/10 13:30:42;;;;;;;2.50;2.30;;;16.50;56.60;;;;;;222038;1271;22542;-47
2023/01/10 13:35:48;;;;;;;2.80;2.60;;;16.40;56.80;;;;;;222107;1270;22646;-46
2023/01/10 13:41:01;;;;;;;2.60;2.40;;;16.60;56.10;;;;;;222047;1270;22639;-50
2023/01/10 13:46:27;;;;;;;2.60;2.40;;;16.60;56.10;;;;;;221824;1267;22540;-47
2023/01/10 13:51:31;;;;;;;2.70;2.50;;;16.60;56.40;;;;;;221699;1271;22580;-45
2023/01/10 13:56:41;;;;;;;2.70;2.50;;;16.60;56.10;;;;;;222327;1269;22536;-44
2023/01/10 14:07:22;;;;;;;2.40;2.30;;;16.50;56.60;;;;;;222997;1269;24241;-47
2023/01/10 14:12:45;;;;;;;2.60;2.40;;;16.40;56.40;;;;;;222044;1263;270146;-50
2023/01/10 14:18:03;;;;;;;2.60;2.40;;;16.40;56.50;;;;;;222659;1269;23122;-46
2023/01/10 14:23:20;;;;;;;2.50;2.30;;;16.40;56.60;;;;;;222489;1269;22524;-46
2023/01/10 14:28:32;;;;;;;2.70;2.50;;;16.40;56.90;;;;;;222445;1269;22527;-47
2023/01/10 14:33:41;;;;;;;2.60;2.40;;;16.50;56.30;;;;;;222457;1269;24203;-47
2023/01/10 14:38:48;;;;;;;2.80;2.60;;;16.50;56.40;;;;;;222616;1269;24221;-49
2023/01/10 14:44:12;;;;;;;2.60;2.40;;;16.40;56.60;;;;;;222699;1269;24226;-45
2023/01/10 14:49:19;;;;;;;2.40;2.10;;;16.40;56.50;;;;;;222399;1269;25597;-46
2023/01/10 14:54:23;;;;;;;2.20;2.00;;;16.40;56.60;;;;;;222605;1267;22537;-47
2023/01/10 14:59:34;;;;;;;2.40;2.20;;;16.40;56.60;;;;;;222721;1269;25487;-48
2023/01/10 15:04:52;;;;;;;2.60;2.40;;;16.40;56.60;;;;;;222367;1268;22548;-46
2023/01/10 15:10:04;;;;;;;2.40;2.20;;;16.40;56.70;;;;;;222574;1265;25559;-48
2023/01/10 15:15:14;;;;;;;;;;;16.40;56.50;;;;;;222365;1269;24196;-44
2023/01/10 15:20:20;;;;;;;2.50;2.30;;;16.40;56.50;;;;;;222275;1267;25317;-49
2023/01/10 15:25:39;;;;;;;2.40;2.10;;;16.40;56.60;;;;;;222683;1262;22527;-49
2023/01/10 15:30:44;;;;;;;2.10;2.00;;;16.40;56.80;;;;;;222916;1264;24031;-47
2023/01/10 15:35:48;;;;;;;3.20;2.80;;;16.40;56.30;;;;;;222351;1262;22683;-46
2023/01/10 15:41:02;;;;;;;2.40;2.20;;;16.30;56.50;;;;;;222175;1264;22597;-48
2023/01/10 15:46:20;;;;;;;2.80;2.50;;;16.30;57.10;;;;;;222400;1269;22660;-47
2023/01/10 15:51:33;;;;;;;2.30;2.10;;;16.40;56.10;;;;;;222514;1269;22526;-47
2023/01/10 15:56:41;;;;;;;2.30;2.10;;;16.60;56.00;;;;;;222798;1246;25562;-47
2023/01/10 16:01:56;;;;;;;2.80;2.60;;;16.50;56.10;;;;;;222707;1262;22644;-47
2023/01/10 16:07:17;;;;;;;2.20;2.00;;;16.40;56.60;;;;;;222838;1268;25328;-46
2023/01/10 16:17:58;;;;;;;2.70;2.40;;;16.30;56.60;;;;;;222993;1269;24382;-47
2023/01/10 16:23:12;;;;;;;2.60;2.40;;;16.30;56.50;;;;;;222645;1246;24337;-47
2023/01/10 16:28:18;;;;;;;2.40;2.20;;;16.40;56.40;;;;;;222363;1265;22545;-46
2023/01/10 16:33:25;;;;;;;2.40;2.20;;;16.40;56.40;;;;;;222212;1268;24234;-47
2023/01/10 16:38:30;;;;;;;2.40;2.20;;;16.30;56.50;;;;;;222811;1269;24209;-47
2023/01/10 16:43:34;;;;;;;2.20;2.00;;;16.30;56.50;;;;;;222332;1269;25188;-48
2023/01/10 16:48:38;;;;;;;2.80;2.50;;;16.30;56.60;;;;;;222556;1269;22647;-46
2023/01/10 16:53:44;;;;;;;2.40;2.20;;;16.20;56.90;;;;;;222798;1269;24560;-48
2023/01/10 16:58:50;;;;;;;2.90;2.50;;;16.20;56.60;;;;;;222803;1262;22605;-46
2023/01/10 17:03:55;;;;;;;2.50;2.30;;;16.20;56.60;;;;;;222661;1262;22529;-49
2023/01/10 17:08:59;;;;;;;2.50;2.30;;;16.30;56.50;;;;;;222645;1262;23313;-47
2023/01/10 17:14:04;;;;;;;2.80;2.40;;;16.30;56.40;;;;;;222630;1269;23922;-47
2023/01/10 17:19:08;;;;;;;2.50;2.30;;;16.40;56.10;;;;;;222886;1269;26536;-48
2023/01/10 17:24:13;;;;;;;2.30;2.10;;;16.40;56.00;;;;;;222592;1269;25249;-47
2023/01/10 17:29:20;;;;;;;2.60;2.40;;;16.40;56.10;;;;;;222351;1265;22530;-46
2023/01/10 17:34:30;;;;;;;2.80;2.60;;;16.30;56.30;;;;;;222433;1269;24215;-48
2023/01/10 17:39:36;;;;;;;2.30;2.10;;;16.30;56.30;;;;;;222631;1263;22540;-47
2023/01/10 17:44:41;;;;;;;2.70;2.50;;;16.30;56.30;;;;;;222501;1262;24065;-48
2023/01/10 17:49:45;;;;;;;2.40;2.20;;;16.20;56.50;;;;;;222433;1269;22597;-46
2023/01/10 17:54:49;;;;;;;1.90;1.80;;;16.20;56.60;;;;;;222760;1269;25476;-48
2023/01/10 17:59:54;;;;;;;2.40;2.20;;;16.20;56.50;;;;;;222456;1265;25710;-46
2023/01/10 18:04:59;;;;;;;2.70;2.50;;;16.20;56.50;;;;;;222252;1262;22629;-48
2023/01/10 18:10:14;;;;;;;3.00;2.60;;;16.20;56.90;;;;;;222820;1269;22538;-47
2023/01/10 18:15:26;;;;;;;2.80;2.60;;;16.20;57.00;;;;;;222742;1269;25238;-47
2023/01/10 18:20:30;;;;;;;2.90;2.70;;;16.20;56.50;;;;;;222434;1265;22553;-48
2023/01/10 18:25:35;;;;;;;2.40;2.20;;;16.30;56.70;;;;;;222525;1268;22531;-46
2023/01/10 18:30:43;;;;;;;2.60;2.40;;;16.30;56.30;;;;;;222733;1269;22579;-47
2023/01/10 18:35:56;;;;;;;2.90;2.70;;;16.30;56.80;;;;;;222723;1269;22701;-52
2023/01/10 18:41:00;;;;;;;;;;;16.30;56.30;;;;;;222383;1265;22520;-45
2023/01/10 18:46:08;;;;;;;2.50;2.30;;;16.30;56.30;;;;;;222701;1265;24246;-45
2023/01/10 18:51:24;;;;;;;3.60;2.80;;;16.20;56.30;;;;;;222834;1265;24203;-50
2023/01/10 18:56:30;;;;;;;2.40;2.20;;;16.20;56.40;;;;;;222557;1247;24231;-48
2023/01/10 19:01:44;;;;;;;2.80;2.60;;;16.10;56.60;;;;;;222537;1269;22524;-49
2023/01/10 19:06:53;;;;;;;2.90;2.70;;;16.20;56.80;;;;;;222579;1269;23244;-47
2023/01/10 19:12:00;;;;;;;2.90;2.70;;;16.20;56.40;;;;;;222554;1269;22545;-46
2023/01/10 19:17:05;;;;;;;3.20;2.90;;;16.20;56.70;;;;;;222332;1269;22639;-47
2023/01/10 19:22:10;;;;;;;2.80;2.50;;;16.10;56.90;;;;;;222451;1246;24357;-47
2023/01/10 19:27:20;;;;;;;2.90;2.30;;;16.10;56.60;;;;;;222324;1269;22551;-46
2023/01/10 19:32:34;;;;;;;2.60;2.40;;;16.10;56.80;;;;;;222109;1269;24361;-45
2023/01/10 19:37:39;;;;;;;3.20;2.80;;;16.20;56.40;;;;;;222304;1268;24317;-48
2023/01/10 19:42:46;;;;;;;2.80;2.60;;;16.20;56.40;;;;;;222563;1269;24228;-47
2023/01/10 19:47:53;;;;;;;2.80;2.60;;;16.20;56.40;;;;;;222337;1268;22893;-46
2023/01/10 19:52:59;;;;;;;2.80;2.60;;;16.10;56.30;;;;;;222722;1265;22527;-49
2023/01/10 19:58:05;;;;;;;3.60;2.90;;;16.20;56.10;;;;;;222260;1269;24811;-47
2023/01/10 20:03:14;;;;;;;2.70;2.50;;;16.20;56.20;;;;;;222393;1269;22555;-45
2023/01/10 20:08:27;;;;;;;2.10;1.90;;;16.20;56.20;;;;;;222726;1265;25375;-48
2023/01/10 20:13:37;;;;;;;4.90;2.70;;;16.20;56.30;;;;;;222466;1265;25341;-47
2023/01/10 20:18:45;;;;;;;2.80;2.50;;;16.20;56.30;;;;;;222262;1264;24449;-50
2023/01/10 20:23:55;;;;;;;3.00;2.80;;;16.10;56.50;;;;;;222428;1262;24371;-48
2023/01/10 20:29:05;;;;;;;2.40;2.20;;;16.20;56.30;;;;;;222554;1262;23720;-50
2023/01/10 20:34:10;;;;;;;2.50;2.30;;;16.10;56.40;;;;;;222527;1268;25411;-46
2023/01/10 20:39:17;;;;;;;2.80;2.60;;;16.10;56.50;;;;;;222557;1265;24245;-46
2023/01/10 20:44:21;;;;;;;2.70;2.50;;;16.10;56.40;;;;;;222558;1269;24289;-46
2023/01/10 20:49:27;;;;;;;2.80;2.60;;;16.10;56.40;;;;;;222750;1269;25336;-50
2023/01/10 20:54:43;;;;;;;2.80;2.50;;;16.00;56.50;;;;;;222623;1262;24242;-47
2023/01/10 20:59:48;;;;;;;3.00;2.80;;;16.10;56.30;;;;;;222411;1269;22995;-47
2023/01/10 21:04:55;;;;;;;3.00;2.80;;;16.20;56.10;;;;;;222474;1269;22651;-45
2023/01/10 21:10:00;;;;;;;2.70;2.50;;;16.20;56.20;;;;;;222688;1269;24233;-47
2023/01/10 21:15:07;;;;;;;2.80;2.60;;;16.10;56.30;;;;;;222584;1265;24380;-47
2023/01/10 21:20:12;;;;;;;2.60;2.40;;;16.20;56.10;;;;;;222453;1268;22753;-47
2023/01/10 21:25:19;;;;;;;3.10;2.80;;;16.10;56.00;;;;;;222430;1265;22546;-46
2023/01/10 21:30:24;;;;;;;2.90;2.70;;;16.10;56.40;;;;;;222255;1265;22734;-47
2023/01/10 21:35:29;;;;;;;2.70;2.50;;;16.20;56.00;;;;;;222629;1269;23875;-47
2023/01/10 21:40:42;;;;;;;2.40;2.20;;;16.10;56.30;;;;;;222543;1269;22608;-46
2023/01/10 21:45:49;;;;;;;2.70;2.50;;;16.10;56.60;;;;;;222434;1269;24206;-45
2023/01/10 21:50:53;;;;;;;3.10;2.80;;;16.10;56.40;;;;;;222380;1269;22548;-46
2023/01/10 21:56:00;;;;;;;2.40;2.20;;;16.10;56.40;;;;;;222538;1261;24207;-46
2023/01/10 22:01:26;;;;;;;3.00;2.80;;;16.00;56.50;;;;;;222619;1269;24273;-51
2023/01/10 22:06:30;;;;;;;2.80;2.50;;;16.00;56.30;;;;;;222372;1265;22547;-46
2023/01/10 22:11:35;;;;;;;2.60;2.40;;;16.00;56.60;;;;;;222670;1263;24804;-46
2023/01/10 22:16:39;;;;;;;2.60;2.40;;;16.00;56.40;;;;;;222776;1269;22536;-46
2023/01/10 22:21:43;;;;;;;2.50;2.30;;;16.10;56.00;;;;;;222618;1266;22527;-47
2023/01/10 22:26:48;;;;;;;2.80;2.60;;;16.20;55.90;;;;;;222715;1269;22639;-49
2023/01/10 22:31:53;;;;;;;3.00;2.60;;;16.10;56.30;;;;;;222632;1269;23946;-47
2023/01/10 22:36:57;;;;;;;2.60;2.40;;;16.10;56.10;;;;;;222455;1269;22651;-46
2023/01/10 22:42:01;;;;;;;2.50;2.30;;;16.10;55.90;;;;;;222512;1267;24211;-47
2023/01/10 22:47:05;;;;;;;2.80;2.60;;;16.00;56.30;;;;;;222474;1265;22524;-48
2023/01/10 22:52:10;;;;;;;2.80;2.60;;;16.00;56.50;;;;;;222374;1269;24357;-46
2023/01/10 22:57:14;;;;;;;3.30;2.90;;;16.00;56.20;;;;;;222228;1269;22526;-48
2023/01/10 23:02:18;;;;;;;2.80;2.60;;;16.00;56.70;;;;;;222647;1269;24394;-49
2023/01/10 23:07:23;;;;;;;3.00;2.50;;;15.90;56.50;;;;;;222433;1262;23969;-49
2023/01/10 23:12:27;;;;;;;3.00;2.70;;;15.90;56.40;;;;;;222723;1263;22545;-50
2023/01/10 23:17:31;;;;;;;3.10;2.90;;;15.90;56.30;;;;;;222643;1269;22538;-46
2023/01/10 23:22:35;;;;;;;3.20;2.70;;;15.90;56.40;;;;;;222502;1269;23118;-47
2023/01/10 23:27:39;;;;;;;2.80;2.50;;;15.90;56.40;;;;;;222571;1269;22539;-47
2023/01/10 23:32:43;;;;;;;3.50;2.60;;;16.00;56.30;;;;;;222413;1269;23243;-48
2023/01/10 23:37:47;;;;;;;2.90;2.70;;;16.00;56.50;;;;;;222227;1262;22541;-47
2023/01/10 23:42:51;;;;;;;2.90;2.50;;;15.90;56.20;;;;;;222462;1265;22523;-48
2023/01/10 23:47:56;;;;;;;3.20;2.90;;;16.00;56.60;;;;;;222217;1269;22568;-49
2023/01/10 23:53:00;;;;;;;2.80;2.50;;;16.00;56.20;;;;;;222416;1265;22525;-46
2023/01/10 23:58:04;;;;;;;3.00;2.70;;;15.90;56.10;;;;;;222740;1269;22673;-48
